Ramore, Canada
Current Conditions -  °F | °C
As of 7:00 PM on Friday 21 Nov 2014 (Local Time) from CYTS Reporting Station
Overcast Overcast  
Wind Chill:   Ceiling: 8000
Heat Index: 18°   Visibility: 15mi
Dew Point: 12°   Wind: 14mph
Humidity: 79%   Direction: 190°S
Pressure: 29.99"   Gusts: 23mph
Location:  48.42°N, 80.32°W
Report Text: CYTS 220000Z 19012G20KT 15SM SCT025 BKN080 OVC100 M08/M11 A2999 RMK SC3AC3AC2 INTMT -SN SLP184
Loading
Personal Weather Stations






























Interactive Weather Map New forecast layout! Learn more

10-Day Weather Forecast

Advertisements
Track Severe Weather on mobile